Time;durP1;ratioP1;P1;durP2;ratioP2;P2;SDS_P1;SDS_P2;PMS_P1;PMS_P2;Temp;Humidity;BMP_temperature;BMP_pressure;BME280_temperature;BME280_humidity;BME280_pressure;Samples;Min_cycle;Max_cycle;Signal;HPM_P1;HPM_P2
2022/02/22 00:01:40;;;;;;;34.30;6.03;;;;;;;-145.14;100.00;70583.66;5000439;28;20331;-76
2022/02/22 00:04:07;;;;;;;23.57;4.43;;;;;;;-145.14;100.00;70583.66;5000081;28;20216;-76
2022/02/22 00:06:32;;;;;;;26.60;5.30;;;;;;;-145.14;100.00;70583.66;5002584;28;20295;-77
2022/02/22 00:08:58;;;;;;;25.43;5.47;;;;;;;-145.14;100.00;70583.66;5003048;28;20921;-77
2022/02/22 00:11:23;;;;;;;29.10;4.87;;;;;;;-145.14;100.00;70583.66;5002567;28;20201;-77
2022/02/22 00:13:48;;;;;;;27.63;6.50;;;;;;;-145.14;100.00;70583.66;5005303;28;20209;-76
2022/02/22 00:16:14;;;;;;;30.70;6.03;;;;;;;-145.14;100.00;70583.66;4998689;28;20793;-77
2022/02/22 00:18:39;;;;;;;31.03;6.93;;;;;;;-145.14;100.00;70583.66;5001648;28;20316;-76
2022/02/22 00:21:06;;;;;;;31.70;5.77;;;;;;;-145.14;100.00;70583.66;4983533;28;20197;-75
2022/02/22 00:23:31;;;;;;;25.73;5.73;;;;;;;-145.14;100.00;70583.66;5002041;28;20185;-76
2022/02/22 00:25:57;;;;;;;20.50;5.70;;;;;;;-145.14;100.00;70583.66;5003298;28;20462;-76
2022/02/22 00:28:22;;;;;;;30.00;6.67;;;;;;;-145.14;100.00;70583.66;5001347;28;20311;-78
2022/02/22 00:30:48;;;;;;;35.80;5.60;;;;;;;-145.14;100.00;70583.66;5002518;28;20189;-76
2022/02/22 00:33:14;;;;;;;23.23;5.33;;;;;;;-145.14;100.00;70583.66;5001074;28;20251;-76
2022/02/22 00:35:39;;;;;;;28.00;5.20;;;;;;;-145.14;100.00;70583.66;5000625;28;20471;-77
2022/02/22 00:38:05;;;;;;;23.73;5.83;;;;;;;-145.14;100.00;70583.66;5003821;28;20280;-76
2022/02/22 00:40:30;;;;;;;30.17;6.17;;;;;;;-145.14;100.00;70583.66;5004373;28;20272;-76
2022/02/22 00:42:56;;;;;;;29.33;6.03;;;;;;;-145.14;100.00;70583.66;5002790;28;20604;-77
2022/02/22 00:45:21;;;;;;;19.97;5.07;;;;;;;-145.14;100.00;70583.66;4999338;28;20236;-76
2022/02/22 00:47:47;;;;;;;21.07;5.03;;;;;;;-145.14;100.00;70583.66;5001611;28;20201;-76
2022/02/22 00:50:12;;;;;;;31.00;5.70;;;;;;;-145.14;100.00;70583.66;4998970;28;20298;-76
2022/02/22 00:52:38;;;;;;;32.33;5.70;;;;;;;-145.14;100.00;70583.66;5001308;28;20654;-75
2022/02/22 00:55:04;;;;;;;26.67;5.63;;;;;;;-145.14;100.00;70583.66;5003180;28;20344;-75
2022/02/22 00:57:29;;;;;;;23.27;6.10;;;;;;;-145.14;100.00;70583.66;5002710;28;20217;-76
2022/02/22 00:59:55;;;;;;;31.37;6.77;;;;;;;-145.14;100.00;70583.66;4999376;28;20473;-76
2022/02/22 01:02:20;;;;;;;23.23;4.63;;;;;;;-145.14;100.00;70583.66;4981348;28;20276;-75
2022/02/22 01:04:46;;;;;;;28.40;5.73;;;;;;;-145.14;100.00;70583.66;4999611;28;20243;-75
2022/02/22 01:07:16;;;;;;;37.20;6.47;;;;;;;-145.14;100.00;70583.66;4996760;28;20499;-75
2022/02/22 01:09:45;;;;;;;25.83;5.60;;;;;;;-145.14;100.00;70583.66;5003890;28;20181;-75
2022/02/22 01:12:12;;;;;;;29.90;5.80;;;;;;;-145.14;100.00;70583.66;5000390;28;20439;-75
2022/02/22 01:14:38;;;;;;;23.63;6.03;;;;;;;-145.14;100.00;70583.66;5001266;28;20515;-77
2022/02/22 01:17:04;;;;;;;21.90;5.50;;;;;;;-145.14;100.00;70583.66;5001779;28;21210;-77
2022/02/22 01:19:29;;;;;;;31.17;6.07;;;;;;;-145.14;100.00;70583.66;4999364;28;21184;-77
2022/02/22 01:21:55;;;;;;;21.33;4.93;;;;;;;-145.14;100.00;70583.66;4998363;28;20247;-77
2022/02/22 01:24:20;;;;;;;21.23;5.90;;;;;;;-145.14;100.00;70583.66;4998539;28;20213;-77
2022/02/22 01:26:46;;;;;;;26.83;5.23;;;;;;;-145.14;100.00;70583.66;4998962;28;20676;-77
2022/02/22 01:29:11;;;;;;;22.70;5.50;;;;;;;-145.14;100.00;70583.66;4999398;28;20730;-77
2022/02/22 01:31:37;;;;;;;33.03;4.40;;;;;;;-145.14;100.00;70583.66;5001271;28;20197;-77
2022/02/22 01:34:02;;;;;;;28.87;6.10;;;;;;;-145.14;100.00;70583.66;5000214;28;20227;-76
2022/02/22 01:36:28;;;;;;;22.60;5.13;;;;;;;-145.14;100.00;70583.66;5002087;28;20189;-77
2022/02/22 01:38:54;;;;;;;28.73;5.30;;;;;;;-145.14;100.00;70583.66;5002584;28;20177;-77
2022/02/22 01:41:20;;;;;;;27.10;5.97;;;;;;;-145.14;100.00;70583.66;5000590;28;20696;-77
2022/02/22 01:43:46;;;;;;;29.53;5.50;;;;;;;-145.14;100.00;70583.66;5001489;28;20441;-77
2022/02/22 01:46:12;;;;;;;29.73;5.20;;;;;;;-145.14;100.00;70583.66;5000586;28;20446;-77
2022/02/22 01:48:37;;;;;;;27.23;5.50;;;;;;;-145.14;100.00;70583.66;4980115;28;20843;-76
2022/02/22 01:51:03;;;;;;;29.27;5.17;;;;;;;-145.14;100.00;70583.66;5002140;28;20440;-77
2022/02/22 01:53:29;;;;;;;22.10;5.10;;;;;;;-145.14;100.00;70583.66;4996742;28;20355;-75
2022/02/22 01:55:54;;;;;;;37.63;5.87;;;;;;;-145.14;100.00;70583.66;5001444;28;20189;-75
2022/02/22 01:58:19;;;;;;;23.63;5.83;;;;;;;-145.14;100.00;70583.66;4997940;28;20656;-75
2022/02/22 02:00:48;;;;;;;32.10;6.90;;;;;;;-145.14;100.00;70583.66;4996332;28;20231;-76
2022/02/22 02:03:15;;;;;;;23.33;4.83;;;;;;;-145.14;100.00;70583.66;4998362;28;20181;-75
2022/02/22 02:05:42;;;;;;;23.07;5.37;;;;;;;-145.14;100.00;70583.66;5000410;28;20554;-75
2022/02/22 02:08:07;;;;;;;21.13;3.97;;;;;;;-145.14;100.00;70583.66;4997802;28;20464;-74
2022/02/22 02:10:32;;;;;;;21.37;3.60;;;;;;;-145.14;100.00;70583.66;5000669;28;20494;-75
2022/02/22 02:12:58;;;;;;;17.43;3.93;;;;;;;-145.14;100.00;70583.66;4997717;28;20251;-75
2022/02/22 02:15:23;;;;;;;15.03;4.00;;;;;;;-145.14;100.00;70583.66;4998965;28;20205;-76
2022/02/22 02:17:49;;;;;;;12.63;3.97;;;;;;;-145.14;100.00;70583.66;4999980;28;20181;-77
2022/02/22 02:20:14;;;;;;;22.70;4.30;;;;;;;-145.14;100.00;70583.66;4997839;28;20276;-75
2022/02/22 02:22:41;;;;;;;21.60;4.67;;;;;;;-145.14;100.00;70583.66;4982668;28;20668;-75
2022/02/22 02:25:07;;;;;;;26.30;4.70;;;;;;;-145.14;100.00;70583.66;4995700;28;20244;-76
2022/02/22 02:27:33;;;;;;;24.80;4.60;;;;;;;-145.14;100.00;70583.66;5001454;28;20526;-75
2022/02/22 02:30:01;;;;;;;19.63;4.30;;;;;;;-145.14;100.00;70583.66;4997532;28;20887;-75
2022/02/22 02:32:27;;;;;;;27.83;5.20;;;;;;;-145.14;100.00;70583.66;4998525;28;20480;-76
2022/02/22 02:34:53;;;;;;;29.93;6.00;;;;;;;-145.14;100.00;70583.66;4997182;28;20881;-76
2022/02/22 02:37:19;;;;;;;31.23;5.00;;;;;;;-145.14;100.00;70583.66;4998498;28;20439;-76
2022/02/22 02:39:44;;;;;;;23.90;6.00;;;;;;;-145.14;100.00;70583.66;4999193;28;20192;-76
2022/02/22 02:42:10;;;;;;;29.37;5.60;;;;;;;-145.14;100.00;70583.66;4997133;28;20203;-76
2022/02/22 02:44:36;;;;;;;29.87;6.00;;;;;;;-145.14;100.00;70583.66;4997927;28;20209;-76
2022/02/22 02:47:04;;;;;;;27.47;5.97;;;;;;;-145.14;100.00;70583.66;4998316;28;20201;-75
2022/02/22 02:49:31;;;;;;;27.60;6.07;;;;;;;-145.14;100.00;70583.66;4999118;28;21117;-75
2022/02/22 02:51:56;;;;;;;28.70;6.23;;;;;;;-145.14;100.00;70583.66;4996964;28;20487;-76
2022/02/22 02:54:21;;;;;;;29.10;5.00;;;;;;;-145.14;100.00;70583.66;4997769;28;20480;-75
2022/02/22 02:56:47;;;;;;;32.17;4.73;;;;;;;-145.14;100.00;70583.66;5000997;28;20650;-75
2022/02/22 02:59:12;;;;;;;23.67;5.60;;;;;;;-145.14;100.00;70583.66;4998654;28;20327;-75
2022/02/22 03:01:42;;;;;;;28.07;4.80;;;;;;;-145.14;100.00;70583.66;4999103;28;20201;-74
2022/02/22 03:04:07;;;;;;;23.03;4.97;;;;;;;-145.14;100.00;70583.66;4979772;28;20295;-75
2022/02/22 03:06:33;;;;;;;26.70;5.20;;;;;;;-145.14;100.00;70583.66;4998761;28;20537;-74
2022/02/22 03:08:59;;;;;;;29.80;5.63;;;;;;;-145.14;100.00;70583.66;4996307;28;20451;-76
2022/02/22 03:11:25;;;;;;;27.67;4.93;;;;;;;-145.14;100.00;70583.66;4996645;28;20189;-76
2022/02/22 03:13:51;;;;;;;23.80;4.60;;;;;;;-145.14;100.00;70583.66;4996647;28;20524;-76
2022/02/22 03:16:16;;;;;;;24.20;4.50;;;;;;;-145.14;100.00;70583.66;4996469;28;20447;-75
2022/02/22 03:18:45;;;;;;;23.17;4.73;;;;;;;-145.14;100.00;70583.66;4994015;28;20200;-74
2022/02/22 03:21:11;;;;;;;23.70;5.13;;;;;;;-145.14;100.00;70583.66;4997206;28;20598;-74
2022/02/22 03:23:37;;;;;;;30.47;5.00;;;;;;;-145.14;100.00;70583.66;4999538;28;20475;-75
2022/02/22 03:26:03;;;;;;;22.20;4.67;;;;;;;-145.14;100.00;70583.66;5000272;28;20448;-74
2022/02/22 03:28:28;;;;;;;26.70;5.20;;;;;;;-145.14;100.00;70583.66;4979844;28;20209;-74
2022/02/22 03:30:54;;;;;;;32.57;6.00;;;;;;;-145.14;100.00;70583.66;4999233;28;20454;-74
2022/02/22 03:33:20;;;;;;;31.07;5.60;;;;;;;-145.14;100.00;70583.66;4995824;28;20268;-74
2022/02/22 03:35:46;;;;;;;26.93;4.63;;;;;;;-145.14;100.00;70583.66;5006384;23;20523;-74
2022/02/22 03:38:11;;;;;;;29.13;5.50;;;;;;;-145.14;100.00;70583.66;5003036;28;20219;-73
2022/02/22 03:40:37;;;;;;;29.50;5.27;;;;;;;-145.14;100.00;70583.66;5007100;28;20609;-73
2022/02/22 03:43:03;;;;;;;29.60;5.27;;;;;;;-145.14;100.00;70583.66;4989228;28;20385;-73
2022/02/22 03:45:29;;;;;;;21.50;4.83;;;;;;;-145.14;100.00;70583.66;5003757;28;20295;-73
2022/02/22 03:47:57;;;;;;;19.23;4.60;;;;;;;-145.14;100.00;70583.66;4985699;28;20897;-73
2022/02/22 03:50:23;;;;;;;36.00;6.63;;;;;;;-145.14;100.00;70583.66;5004692;28;20189;-73
2022/02/22 03:52:49;;;;;;;29.40;4.73;;;;;;;-145.14;100.00;70583.66;5006400;28;20432;-73
2022/02/22 03:55:15;;;;;;;22.33;5.23;;;;;;;-145.14;100.00;70583.66;5003382;28;20258;-73
2022/02/22 03:57:41;;;;;;;24.80;5.60;;;;;;;-145.14;100.00;70583.66;4987025;28;20444;-73
2022/02/22 04:00:13;;;;;;;30.57;5.60;;;;;;;-145.14;100.00;70583.66;5005357;28;20442;-73
2022/02/22 04:02:38;;;;;;;27.90;5.97;;;;;;;-145.14;100.00;70583.66;5003825;28;20223;-73
2022/02/22 04:05:07;;;;;;;21.57;4.67;;;;;;;-145.14;100.00;70583.66;5002762;28;22765;-73
2022/02/22 04:07:36;;;;;;;28.63;5.23;;;;;;;-145.14;100.00;70583.66;5005370;28;20666;-73
2022/02/22 04:10:04;;;;;;;32.13;6.33;;;;;;;-145.14;100.00;70583.66;5005689;28;20431;-73
2022/02/22 04:12:30;;;;;;;22.43;3.93;;;;;;;-145.14;100.00;70583.66;5003357;28;20440;-73
2022/02/22 04:14:55;;;;;;;18.23;4.50;;;;;;;-145.14;100.00;70583.66;5004218;28;20813;-73
2022/02/22 04:17:21;;;;;;;25.67;5.13;;;;;;;-145.14;100.00;70583.66;5005019;28;20192;-73
2022/02/22 04:19:48;;;;;;;29.20;5.37;;;;;;;-145.14;100.00;70583.66;5005688;28;20192;-73
2022/02/22 04:22:14;;;;;;;22.57;4.37;;;;;;;-145.14;100.00;70583.66;5003275;28;20180;-73
2022/02/22 04:24:39;;;;;;;23.60;3.87;;;;;;;-145.14;100.00;70583.66;5003696;28;20450;-73
2022/02/22 04:27:06;;;;;;;23.57;4.30;;;;;;;-145.14;100.00;70583.66;5005591;28;20217;-73
2022/02/22 04:29:31;;;;;;;31.10;5.33;;;;;;;-145.14;100.00;70583.66;5004126;28;20305;-73
2022/02/22 04:31:58;;;;;;;27.90;5.60;;;;;;;-145.14;100.00;70583.66;5004191;28;20581;-73
2022/02/22 04:34:24;;;;;;;32.23;5.57;;;;;;;-145.14;100.00;70583.66;4985353;28;20185;-72
2022/02/22 04:36:50;;;;;;;21.50;5.00;;;;;;;-145.14;100.00;70583.66;5004432;28;20941;-73
2022/02/22 04:39:15;;;;;;;16.67;4.93;;;;;;;-145.14;100.00;70583.66;5005193;28;20527;-73
2022/02/22 04:41:41;;;;;;;22.77;5.70;;;;;;;-145.14;100.00;70583.66;5004517;28;20315;-72
2022/02/22 04:44:06;;;;;;;22.03;5.10;;;;;;;-145.14;100.00;70583.66;5002476;28;20208;-73
2022/02/22 04:46:32;;;;;;;21.13;5.10;;;;;;;-145.14;100.00;70583.66;5005317;28;20212;-73
2022/02/22 04:48:58;;;;;;;23.27;4.67;;;;;;;-145.14;100.00;70583.66;5003259;28;20177;-72
2022/02/22 04:51:23;;;;;;;27.17;4.30;;;;;;;-145.14;100.00;70583.66;5004367;28;20181;-72
2022/02/22 04:53:48;;;;;;;28.20;5.73;;;;;;;-145.14;100.00;70583.66;5005175;28;20251;-72
2022/02/22 04:56:14;;;;;;;31.20;5.40;;;;;;;-145.14;100.00;70583.66;5004251;28;20250;-73
2022/02/22 04:58:39;;;;;;;24.70;4.47;;;;;;;-145.14;100.00;70583.66;5006244;28;20300;-72
2022/02/22 05:01:05;;;;;;;21.87;4.57;;;;;;;-145.14;100.00;70583.66;5005132;28;20192;-72
2022/02/22 05:03:30;;;;;;;33.57;6.47;;;;;;;-145.14;100.00;70583.66;5002405;28;20752;-72
2022/02/22 05:05:56;;;;;;;27.73;5.50;;;;;;;-145.14;100.00;70583.66;5003337;28;20640;-72
2022/02/22 05:08:21;;;;;;;25.60;5.27;;;;;;;-145.14;100.00;70583.66;5002779;28;20557;-72
2022/02/22 05:10:47;;;;;;;22.17;4.67;;;;;;;-145.14;100.00;70583.66;5007353;28;20181;-72
2022/02/22 05:13:13;;;;;;;33.63;5.00;;;;;;;-145.14;100.00;70583.66;5004174;28;20181;-72
2022/02/22 05:15:38;;;;;;;30.23;4.70;;;;;;;-145.14;100.00;70583.66;5003484;28;20208;-71
2022/02/22 05:18:05;;;;;;;27.10;5.10;;;;;;;-145.14;100.00;70583.66;4985868;28;20196;-72
2022/02/22 05:20:31;;;;;;;27.13;4.70;;;;;;;-145.14;100.00;70583.66;5005268;28;20244;-72
2022/02/22 05:22:57;;;;;;;28.00;5.30;;;;;;;-145.14;100.00;70583.66;5006183;28;20444;-72
2022/02/22 05:25:23;;;;;;;23.50;5.67;;;;;;;-145.14;100.00;70583.66;5000519;28;20522;-72
2022/02/22 05:27:48;;;;;;;26.47;5.10;;;;;;;-145.14;100.00;70583.66;5001667;28;20537;-72
2022/02/22 05:30:16;;;;;;;26.47;5.43;;;;;;;-145.14;100.00;70583.66;5002958;28;20193;-72
2022/02/22 05:32:42;;;;;;;24.83;5.20;;;;;;;-145.14;100.00;70583.66;5002626;28;20673;-72
2022/02/22 05:35:09;;;;;;;26.90;5.63;;;;;;;-145.14;100.00;70583.66;5003082;28;20529;-72
2022/02/22 05:37:34;;;;;;;24.17;5.17;;;;;;;-145.14;100.00;70583.66;5002812;28;20439;-72
2022/02/22 05:40:01;;;;;;;24.73;5.53;;;;;;;-145.14;100.00;70583.66;5000562;28;20672;-72
2022/02/22 05:42:28;;;;;;;25.50;4.63;;;;;;;-145.14;100.00;70583.66;5001370;28;20272;-71
2022/02/22 05:44:54;;;;;;;26.50;5.50;;;;;;;-145.14;100.00;70583.66;5000201;28;20464;-72
2022/02/22 05:47:20;;;;;;;27.43;4.40;;;;;;;-145.14;100.00;70583.66;4996469;28;20478;-72
2022/02/22 05:49:47;;;;;;;29.03;6.00;;;;;;;-145.14;100.00;70583.66;4999224;28;20447;-72
2022/02/22 05:52:13;;;;;;;29.67;6.07;;;;;;;-145.14;100.00;70583.66;4999351;28;20197;-72
2022/02/22 05:54:39;;;;;;;24.13;5.40;;;;;;;-145.14;100.00;70583.66;5000051;28;20509;-72
2022/02/22 05:57:05;;;;;;;22.00;4.30;;;;;;;-145.14;100.00;70583.66;5000420;28;20799;-73
2022/02/22 05:59:31;;;;;;;27.27;5.43;;;;;;;-145.14;100.00;70583.66;4999649;28;20439;-72
2022/02/22 06:01:56;;;;;;;29.33;4.80;;;;;;;-145.14;100.00;70583.66;4997612;28;20470;-73
2022/02/22 06:04:22;;;;;;;24.33;4.57;;;;;;;-145.14;100.00;70583.66;4990885;28;20669;-72
2022/02/22 06:06:48;;;;;;;20.90;5.67;;;;;;;-145.14;100.00;70583.66;4991553;28;20611;-73
2022/02/22 06:09:13;;;;;;;34.07;4.37;;;;;;;-145.14;100.00;70583.66;4998432;28;20925;-73
2022/02/22 06:11:39;;;;;;;19.73;4.50;;;;;;;-145.14;100.00;70583.66;5000067;28;20744;-73
2022/02/22 06:14:05;;;;;;;28.87;4.63;;;;;;;-145.14;100.00;70583.66;4992767;28;20194;-73
2022/02/22 06:16:31;;;;;;;26.30;4.53;;;;;;;-145.14;100.00;70583.66;4972614;28;20197;-72
2022/02/22 06:18:56;;;;;;;26.03;5.00;;;;;;;-145.14;100.00;70583.66;5001962;28;20981;-72
2022/02/22 06:21:22;;;;;;;19.37;4.63;;;;;;;-145.14;100.00;70583.66;5000372;28;20573;-73
2022/02/22 06:23:48;;;;;;;14.97;3.83;;;;;;;-145.14;100.00;70583.66;5001029;28;20447;-73
2022/02/22 06:26:14;;;;;;;21.93;5.07;;;;;;;-145.14;100.00;70583.66;4996215;28;20472;-74
2022/02/22 06:28:39;;;;;;;24.17;4.43;;;;;;;-145.14;100.00;70583.66;4976386;28;21455;-73
2022/02/22 06:31:06;;;;;;;19.60;4.83;;;;;;;-145.14;100.00;70583.66;4988553;28;20561;-73
2022/02/22 06:33:33;;;;;;;21.00;4.70;;;;;;;-145.14;100.00;70583.66;4972110;28;20756;-73
2022/02/22 06:36:01;;;;;;;26.83;4.80;;;;;;;-145.14;100.00;70583.66;4986597;28;20471;-74
2022/02/22 06:38:27;;;;;;;18.80;3.63;;;;;;;-145.14;100.00;70583.66;4994064;28;21113;-72
2022/02/22 06:40:52;;;;;;;25.80;4.57;;;;;;;-145.14;100.00;70583.66;4996586;28;20452;-73
2022/02/22 06:43:18;;;;;;;25.57;4.60;;;;;;;-145.14;100.00;70583.66;4987598;28;20486;-73
2022/02/22 06:45:43;;;;;;;28.27;6.77;;;;;;;-145.14;100.00;70583.66;4988308;28;20255;-73
2022/02/22 06:48:11;;;;;;;27.57;5.40;;;;;;;-145.14;100.00;70583.66;4997158;28;20209;-73
2022/02/22 06:50:38;;;;;;;25.63;5.50;;;;;;;-145.14;100.00;70583.66;4994534;28;20823;-73
2022/02/22 06:53:03;;;;;;;28.17;6.00;;;;;;;-145.14;100.00;70583.66;4998618;28;20440;-73
2022/02/22 06:55:29;;;;;;;27.70;5.33;;;;;;;-145.14;100.00;70583.66;4995775;28;20967;-73
2022/02/22 06:58:03;;;;;;;34.13;6.03;;;;;;;-145.14;100.00;70583.66;4998726;28;20196;-73
2022/02/22 07:00:29;;;;;;;26.37;5.43;;;;;;;-145.14;100.00;70583.66;4991353;28;20192;-74
2022/02/22 07:02:54;;;;;;;28.77;5.47;;;;;;;-145.14;100.00;70583.66;4998131;28;20474;-73
2022/02/22 07:05:20;;;;;;;26.33;5.70;;;;;;;-145.14;100.00;70583.66;4979299;28;20840;-73
2022/02/22 07:07:45;;;;;;;20.27;5.07;;;;;;;-145.14;100.00;70583.66;4996762;28;20614;-73
2022/02/22 07:10:11;;;;;;;40.37;7.97;;;;;;;-145.14;100.00;70583.66;4966392;28;20216;-72
2022/02/22 07:12:36;;;;;;;40.50;5.53;;;;;;;-145.14;100.00;70583.66;4994648;28;20270;-72
2022/02/22 07:15:03;;;;;;;28.43;4.70;;;;;;;-145.14;100.00;70583.66;5001390;28;20681;-72
2022/02/22 07:17:29;;;;;;;26.00;6.13;;;;;;;-145.14;100.00;70583.66;4997193;28;20193;-72
2022/02/22 07:19:55;;;;;;;22.53;4.80;;;;;;;-145.14;100.00;70583.66;4991471;28;20444;-72
2022/02/22 07:22:21;;;;;;;30.13;5.57;;;;;;;-145.14;100.00;70583.66;4997555;28;20185;-71
2022/02/22 07:24:46;;;;;;;28.40;5.90;;;;;;;-145.14;100.00;70583.66;4995809;28;20467;-71
2022/02/22 07:27:12;;;;;;;30.40;6.40;;;;;;;-145.14;100.00;70583.66;4995922;28;20468;-72
2022/02/22 07:29:37;;;;;;;34.53;6.13;;;;;;;-145.14;100.00;70583.66;4996450;28;20267;-72
2022/02/22 07:32:03;;;;;;;23.13;4.80;;;;;;;-145.14;100.00;70583.66;4997876;28;20272;-71
2022/02/22 07:34:28;;;;;;;28.27;5.83;;;;;;;-145.14;100.00;70583.66;4993882;28;20208;-72
2022/02/22 07:36:54;;;;;;;27.63;6.03;;;;;;;-145.14;100.00;70583.66;4990652;28;20223;-72
2022/02/22 07:39:19;;;;;;;23.43;5.70;;;;;;;-145.14;100.00;70583.66;4991790;28;20216;-73
2022/02/22 07:41:44;;;;;;;20.73;4.83;;;;;;;-145.14;100.00;70583.66;4987338;28;20966;-73
2022/02/22 07:44:10;;;;;;;33.23;4.63;;;;;;;-145.14;100.00;70583.66;4995369;28;20572;-72
2022/02/22 07:46:36;;;;;;;29.87;5.40;;;;;;;-145.14;100.00;70583.66;4991670;28;20213;-73
2022/02/22 07:49:01;;;;;;;32.10;5.87;;;;;;;-145.14;100.00;70583.66;4995324;28;20278;-73
2022/02/22 07:51:27;;;;;;;21.70;5.00;;;;;;;-145.14;100.00;70583.66;4996317;28;20200;-72
2022/02/22 07:53:52;;;;;;;30.37;6.70;;;;;;;-145.14;100.00;70583.66;4986850;28;20276;-73
2022/02/22 07:56:18;;;;;;;22.93;4.70;;;;;;;-145.14;100.00;70583.66;4992979;28;21389;-73
2022/02/22 07:58:43;;;;;;;25.73;5.27;;;;;;;-145.14;100.00;70583.66;4997268;28;20217;-73
2022/02/22 08:01:12;;;;;;;25.87;5.80;;;;;;;-145.14;100.00;70583.66;4999967;28;20211;-73
2022/02/22 08:03:38;;;;;;;36.90;5.57;;;;;;;-145.14;100.00;70583.66;4997305;28;20582;-73
2022/02/22 08:06:03;;;;;;;20.10;4.30;;;;;;;-145.14;100.00;70583.66;4995967;28;20463;-73
2022/02/22 08:08:29;;;;;;;30.27;5.13;;;;;;;-145.14;100.00;70583.66;4980423;28;20475;-73
2022/02/22 08:10:55;;;;;;;24.80;5.50;;;;;;;-145.14;100.00;70583.66;4997540;28;20191;-78
2022/02/22 08:13:20;;;;;;;25.27;5.07;;;;;;;-145.14;100.00;70583.66;4980360;28;20204;-73
2022/02/22 08:15:46;;;;;;;29.77;5.50;;;;;;;-145.14;100.00;70583.66;4972374;28;20516;-73
2022/02/22 08:18:11;;;;;;;25.47;5.97;;;;;;;-145.14;100.00;70583.66;4998833;28;20185;-73
2022/02/22 08:20:37;;;;;;;30.27;5.17;;;;;;;-145.14;100.00;70583.66;4990544;28;20662;-73
2022/02/22 08:23:02;;;;;;;38.57;8.13;;;;;;;-145.14;100.00;70583.66;5001813;28;20654;-73
2022/02/22 08:25:28;;;;;;;41.53;8.70;;;;;;;-145.14;100.00;70583.66;5002467;28;20208;-72
2022/02/22 08:27:54;;;;;;;28.50;6.47;;;;;;;-145.14;100.00;70583.66;5000833;28;20217;-73
2022/02/22 08:30:20;;;;;;;38.63;7.40;;;;;;;-145.14;100.00;70583.66;4999213;28;22059;-73
2022/02/22 08:32:45;;;;;;;29.80;6.60;;;;;;;-145.14;100.00;70583.66;4999056;28;20669;-73
2022/02/22 08:35:11;;;;;;;28.30;5.80;;;;;;;-145.14;100.00;70583.66;5000731;28;20745;-73
2022/02/22 08:37:36;;;;;;;28.57;7.30;;;;;;;-145.14;100.00;70583.66;4999102;28;20603;-73
2022/02/22 08:40:03;;;;;;;28.07;5.90;;;;;;;-145.14;100.00;70583.66;5002463;28;20224;-73
2022/02/22 08:42:29;;;;;;;29.23;5.90;;;;;;;-145.14;100.00;70583.66;5000954;28;20327;-73
2022/02/22 08:44:54;;;;;;;25.70;5.40;;;;;;;-145.14;100.00;70583.66;5001109;28;20463;-73
2022/02/22 08:47:20;;;;;;;26.10;5.70;;;;;;;-145.14;100.00;70583.66;4982865;28;20251;-72
2022/02/22 08:49:47;;;;;;;28.93;6.73;;;;;;;-145.14;100.00;70583.66;4999091;28;20204;-71
2022/02/22 08:52:14;;;;;;;24.70;6.30;;;;;;;-145.14;100.00;70583.66;4996712;28;20444;-74
2022/02/22 08:54:40;;;;;;;28.00;5.97;;;;;;;-145.14;100.00;70583.66;4984296;28;20444;-73
2022/02/22 08:57:06;;;;;;;26.23;6.13;;;;;;;-145.14;100.00;70583.66;4999585;28;20546;-73
2022/02/22 08:59:31;;;;;;;24.93;4.10;;;;;;;-145.14;100.00;70583.66;4999808;28;20983;-74
2022/02/22 09:01:57;;;;;;;27.70;5.33;;;;;;;-145.14;100.00;70583.66;4988205;28;20193;-74
2022/02/22 09:04:23;;;;;;;32.33;5.83;;;;;;;-145.14;100.00;70583.66;4994538;28;20204;-73
2022/02/22 09:06:48;;;;;;;25.43;6.17;;;;;;;-145.14;100.00;70583.66;4990815;28;20205;-73
2022/02/22 09:09:14;;;;;;;32.97;5.47;;;;;;;-145.14;100.00;70583.66;4995669;28;20185;-73
2022/02/22 09:11:39;;;;;;;27.83;5.33;;;;;;;-145.14;100.00;70583.66;4995778;28;20561;-73
2022/02/22 09:14:05;;;;;;;19.43;4.67;;;;;;;-145.14;100.00;70583.66;4998430;28;20231;-73
2022/02/22 09:16:30;;;;;;;25.77;5.20;;;;;;;-145.14;100.00;70583.66;4994441;28;20295;-73
2022/02/22 09:18:56;;;;;;;19.60;4.30;;;;;;;-145.14;100.00;70583.66;4995199;28;20273;-72
2022/02/22 09:21:22;;;;;;;20.80;4.73;;;;;;;-145.14;100.00;70583.66;4996535;28;20185;-73
2022/02/22 09:23:47;;;;;;;24.37;5.37;;;;;;;-145.14;100.00;70583.66;4994460;28;20193;-73
2022/02/22 09:26:13;;;;;;;37.23;5.60;;;;;;;-145.14;100.00;70583.66;4979736;28;20217;-73
2022/02/22 09:28:38;;;;;;;30.37;6.23;;;;;;;-145.14;100.00;70583.66;4993627;28;20219;-74
2022/02/22 09:31:04;;;;;;;25.17;5.10;;;;;;;-145.14;100.00;70583.66;4989539;28;20177;-73
2022/02/22 09:33:29;;;;;;;23.43;4.77;;;;;;;-145.14;100.00;70583.66;4996781;28;20284;-73
2022/02/22 09:35:54;;;;;;;26.50;4.90;;;;;;;-145.14;100.00;70583.66;4998843;28;20741;-73
2022/02/22 09:38:20;;;;;;;21.20;4.37;;;;;;;-145.14;100.00;70583.66;4993129;28;20662;-73
2022/02/22 09:40:46;;;;;;;15.50;3.70;;;;;;;-145.14;100.00;70583.66;4995347;28;20196;-73
2022/02/22 09:43:12;;;;;;;25.70;5.00;;;;;;;-145.14;100.00;70583.66;4994193;28;20193;-73
2022/02/22 09:45:38;;;;;;;27.27;5.57;;;;;;;-145.14;100.00;70583.66;4995185;28;20513;-73
2022/02/22 09:48:04;;;;;;;27.80;4.10;;;;;;;-145.14;100.00;70583.66;4993697;28;20201;-73
2022/02/22 09:50:32;;;;;;;29.97;5.40;;;;;;;-145.14;100.00;70583.66;4994841;28;20463;-73
2022/02/22 09:52:57;;;;;;;25.30;6.57;;;;;;;-145.14;100.00;70583.66;4992708;28;20444;-72
2022/02/22 09:55:23;;;;;;;28.60;5.00;;;;;;;-145.14;100.00;70583.66;4988569;28;20476;-72
2022/02/22 09:57:50;;;;;;;26.20;5.00;;;;;;;-145.14;100.00;70583.66;4986623;28;20189;-73
2022/02/22 10:00:26;;;;;;;20.27;4.73;;;;;;;-145.14;100.00;70583.66;4992318;28;20570;-73
2022/02/22 10:02:52;;;;;;;27.50;4.10;;;;;;;-145.14;100.00;70583.66;4995743;28;20534;-73
2022/02/22 10:05:20;;;;;;;25.13;4.33;;;;;;;-145.14;100.00;70583.66;4993337;28;21994;-73
2022/02/22 10:07:55;;;;;;;23.23;4.20;;;;;;;-145.14;100.00;70583.66;4991725;28;20307;-73
2022/02/22 10:10:38;;;;;;;27.30;5.50;;;;;;;-145.14;100.00;70583.66;4971819;28;20471;-73
2022/02/22 10:13:06;;;;;;;27.07;5.73;;;;;;;-145.14;100.00;70583.66;4997613;28;20450;-73
2022/02/22 10:15:41;;;;;;;23.63;5.50;;;;;;;-145.14;100.00;70583.66;4976346;28;21136;-73
2022/02/22 10:18:08;;;;;;;32.20;5.33;;;;;;;-145.14;100.00;70583.66;4993859;28;20431;-72
2022/02/22 10:20:34;;;;;;;24.23;4.83;;;;;;;-145.14;100.00;70583.66;4975865;28;20842;-73
2022/02/22 10:23:01;;;;;;;28.70;5.70;;;;;;;-145.14;100.00;70583.66;4994975;28;20983;-73
2022/02/22 10:25:27;;;;;;;26.10;4.30;;;;;;;-145.14;100.00;70583.66;4994229;28;20451;-73
2022/02/22 10:27:58;;;;;;;21.87;4.60;;;;;;;-145.14;100.00;70583.66;4987870;28;20522;-74
2022/02/22 10:30:31;;;;;;;21.47;5.90;;;;;;;-145.14;100.00;70583.66;4971070;28;20443;-74
2022/02/22 10:32:56;;;;;;;19.00;4.20;;;;;;;-145.14;100.00;70583.66;4979979;28;20479;-74
2022/02/22 10:35:33;;;;;;;25.17;4.13;;;;;;;-145.14;100.00;70583.66;4993279;28;20471;-73
2022/02/22 10:38:11;;;;;;;25.03;4.50;;;;;;;-145.14;100.00;70583.66;4989253;28;20264;-74
2022/02/22 10:40:37;;;;;;;18.33;4.37;;;;;;;-145.14;100.00;70583.66;4993366;28;20443;-74
2022/02/22 10:43:02;;;;;;;21.43;4.60;;;;;;;-145.14;100.00;70583.66;4988413;28;20447;-73
2022/02/22 10:45:28;;;;;;;23.23;4.67;;;;;;;-145.14;100.00;70583.66;4983871;28;20304;-74
2022/02/22 10:47:55;;;;;;;26.70;5.23;;;;;;;-145.14;100.00;70583.66;4987451;28;20221;-73
2022/02/22 10:50:31;;;;;;;38.40;5.13;;;;;;;-145.14;100.00;70583.66;4971213;28;20246;-74
2022/02/22 10:52:57;;;;;;;21.93;5.23;;;;;;;-145.14;100.00;70583.66;4993312;28;20440;-74
2022/02/22 10:55:23;;;;;;;26.57;6.17;;;;;;;-145.14;100.00;70583.66;4994814;28;20459;-74
2022/02/22 10:57:49;;;;;;;25.30;5.00;;;;;;;-145.14;100.00;70583.66;4996338;28;20442;-74